Time;durP1;ratioP1;P1;durP2;ratioP2;P2;SDS_P1;SDS_P2;PMS_P1;PMS_P2;Temp;Humidity;BMP_temperature;BMP_pressure;BME280_temperature;BME280_humidity;BME280_pressure;Samples;Min_cycle;Max_cycle;Signal;HPM_P1;HPM_P2
2023/11/14 00:00:54;;;;;;;54.60;9.32;;;12.20;99.90;;;;;;4964353;28;20518;-86
2023/11/14 00:03:42;;;;;;;56.08;9.68;;;14.40;99.90;;;;;;4966544;28;20027;-86
2023/11/14 00:06:19;;;;;;;58.08;9.18;;;13.50;99.90;;;;;;4953768;28;20078;-86
2023/11/14 00:08:45;;;;;;;55.67;8.35;;;13.60;99.90;;;;;;4959324;28;20031;-86
2023/11/14 00:11:34;;;;;;;49.33;8.93;;;13.80;99.90;;;;;;4972817;28;20054;-84
2023/11/14 00:14:15;;;;;;;56.30;10.00;;;12.70;99.90;;;;;;4975278;28;20063;-85
2023/11/14 00:16:41;;;;;;;53.78;9.48;;;12.70;99.90;;;;;;4973588;28;20038;-87
2023/11/14 00:19:25;;;;;;;57.72;9.40;;;13.00;99.90;;;;;;4973264;28;20413;-84
2023/11/14 00:22:07;;;;;;;47.00;8.60;;;12.60;99.90;;;;;;4975035;28;20044;-86
2023/11/14 00:24:45;;;;;;;51.25;8.95;;;12.70;99.90;;;;;;4973441;28;20081;-86
2023/11/14 00:27:12;;;;;;;65.65;11.32;;;14.00;99.90;;;;;;4973498;28;20047;-85
2023/11/14 00:29:49;;;;;;;49.75;8.15;;;14.10;99.90;;;;;;4952812;28;20054;-85
2023/11/14 00:32:33;;;;;;;52.30;9.07;;;14.30;99.90;;;;;;4957622;28;20046;-85
2023/11/14 00:35:17;;;;;;;62.65;10.52;;;14.10;99.90;;;;;;4958297;28;20031;-85
2023/11/14 00:37:43;;;;;;;60.60;8.95;;;12.40;99.90;;;;;;4969200;28;20058;-85
2023/11/14 00:40:09;;;;;;;60.47;9.82;;;13.10;99.90;;;;;;4958843;28;20143;-86
2023/11/14 00:42:35;;;;;;;73.28;10.32;;;12.60;99.90;;;;;;4976819;28;20035;-85
2023/11/14 00:45:10;;;;;;;52.63;8.25;;;12.30;99.90;;;;;;4977205;28;20070;-85
2023/11/14 00:47:49;;;;;;;70.57;9.82;;;12.50;99.90;;;;;;4976018;28;20047;-85
2023/11/14 00:50:14;;;;;;;59.20;9.55;;;12.60;99.90;;;;;;4958434;28;20090;-85
2023/11/14 00:52:58;;;;;;;74.45;11.18;;;12.50;99.90;;;;;;4957151;28;20055;-85
2023/11/14 00:55:24;;;;;;;55.45;8.65;;;12.90;99.90;;;;;;4956741;28;20051;-85
2023/11/14 00:57:59;;;;;;;45.58;8.05;;;13.80;99.90;;;;;;4957660;28;20054;-85
2023/11/14 01:00:39;;;;;;;55.90;8.98;;;13.30;99.90;;;;;;4958317;28;20077;-85
2023/11/14 01:03:14;;;;;;;61.80;9.23;;;14.10;99.90;;;;;;4976863;28;20169;-85
2023/11/14 01:05:40;;;;;;;53.47;9.15;;;13.00;99.90;;;;;;4965341;28;20038;-85
2023/11/14 01:08:05;;;;;;;54.33;10.43;;;13.70;99.90;;;;;;4975350;28;20031;-85
2023/11/14 01:10:43;;;;;;;67.70;10.68;;;13.50;99.90;;;;;;4976546;28;20030;-85
2023/11/14 01:13:08;;;;;;;57.97;9.52;;;14.00;99.90;;;;;;4957256;28;20026;-85
2023/11/14 01:15:55;;;;;;;61.50;8.98;;;13.80;99.90;;;;;;4956467;28;20035;-85
2023/11/14 01:18:32;;;;;;;47.15;9.15;;;12.60;99.90;;;;;;4957127;28;20555;-85
2023/11/14 01:20:59;;;;;;;64.20;8.95;;;12.50;99.90;;;;;;4957278;28;20031;-84
2023/11/14 01:23:34;;;;;;;63.78;11.40;;;12.50;99.90;;;;;;4955863;28;20503;-87
2023/11/14 01:26:21;;;;;;;57.63;9.80;;;12.50;99.90;;;;;;4958416;28;20077;-86
2023/11/14 01:28:56;;;;;;;75.22;9.18;;;13.10;99.90;;;;;;4967370;28;20043;-86
2023/11/14 01:31:30;;;;;;;58.33;8.70;;;12.70;99.90;;;;;;4969970;28;20022;-86
2023/11/14 01:33:56;;;;;;;50.75;10.00;;;13.70;99.90;;;;;;4959189;28;20487;-86
2023/11/14 01:36:35;;;;;;;56.45;8.43;;;12.50;99.90;;;;;;4955747;28;20062;-85
2023/11/14 01:39:19;;;;;;;74.90;9.63;;;14.00;99.90;;;;;;4957008;28;20031;-86
2023/11/14 01:41:47;;;;;;;56.85;9.65;;;12.50;99.90;;;;;;4967398;28;20487;-85
2023/11/14 01:44:13;;;;;;;61.33;9.23;;;13.70;99.90;;;;;;4975601;28;20046;-85
2023/11/14 01:46:44;;;;;;;55.80;8.48;;;13.90;99.90;;;;;;4975290;28;20621;-85
2023/11/14 01:49:10;;;;;;;54.53;10.18;;;12.50;99.90;;;;;;4983764;23;20055;-84
2023/11/14 01:51:36;;;;;;;52.20;8.35;;;13.60;99.90;;;;;;5007755;28;20041;-85
2023/11/14 01:54:02;;;;;;;55.80;8.07;;;12.60;99.90;;;;;;4992605;28;20037;-85
2023/11/14 01:56:29;;;;;;;52.28;8.90;;;12.60;99.90;;;;;;4997194;28;20133;-85
2023/11/14 01:58:55;;;;;;;56.45;9.40;;;12.60;99.90;;;;;;4995261;28;20018;-85
2023/11/14 02:01:24;;;;;;;56.92;10.27;;;13.20;99.90;;;;;;4994750;28;20050;-85
2023/11/14 02:03:50;;;;;;;49.75;8.07;;;12.60;99.90;;;;;;4994305;28;20391;-86
2023/11/14 02:06:16;;;;;;;42.40;8.27;;;12.50;99.90;;;;;;4995007;28;20034;-85
2023/11/14 02:08:42;;;;;;;52.67;9.43;;;12.60;99.90;;;;;;5007216;28;20033;-86
2023/11/14 02:11:07;;;;;;;51.90;8.38;;;12.70;99.90;;;;;;5014031;28;20030;-87
2023/11/14 02:13:34;;;;;;;66.85;10.57;;;12.50;99.90;;;;;;4994540;28;20068;-86
2023/11/14 02:15:59;;;;;;;61.15;8.73;;;12.60;99.90;;;;;;5003620;28;20122;-84
2023/11/14 02:18:25;;;;;;;48.95;9.88;;;12.60;99.90;;;;;;4994418;28;20101;-86
2023/11/14 02:20:51;;;;;;;55.80;8.70;;;12.60;99.90;;;;;;4995155;28;20451;-86
2023/11/14 02:23:18;;;;;;;52.13;8.77;;;12.60;99.90;;;;;;4994528;28;20056;-85
2023/11/14 02:25:44;;;;;;;64.20;8.70;;;12.50;99.90;;;;;;4994205;28;20029;-86
2023/11/14 02:28:10;;;;;;;51.60;10.20;;;12.60;99.90;;;;;;5010070;28;20022;-85
2023/11/14 02:30:37;;;;;;;50.13;7.80;;;12.60;99.90;;;;;;5014198;28;20041;-86
2023/11/14 02:33:07;;;;;;;48.28;8.77;;;12.60;99.90;;;;;;5004167;28;20483;-86
2023/11/14 02:35:32;;;;;;;52.55;8.43;;;12.60;99.90;;;;;;4992675;28;20030;-85
2023/11/14 02:37:58;;;;;;;72.63;11.38;;;12.60;99.90;;;;;;4994909;28;20035;-85
2023/11/14 02:40:24;;;;;;;55.50;8.18;;;12.60;99.90;;;;;;4993326;28;20391;-85
2023/11/14 02:42:53;;;;;;;46.30;8.70;;;12.60;99.90;;;;;;4994322;28;20062;-86
2023/11/14 02:45:20;;;;;;;49.92;7.13;;;12.60;99.90;;;;;;4994152;28;20038;-86
2023/11/14 02:47:46;;;;;;;54.88;8.27;;;13.00;99.90;;;;;;5004579;28;20046;-86
2023/11/14 02:50:45;;;;;;;46.17;7.72;;;12.60;99.90;;;;;;5013750;28;20053;-86
2023/11/14 02:53:11;;;;;;;46.67;7.53;;;12.60;99.90;;;;;;5000280;28;20023;-86
2023/11/14 02:55:37;;;;;;;53.30;8.00;;;12.60;99.90;;;;;;5013557;28;20022;-85
2023/11/14 02:58:02;;;;;;;38.92;7.47;;;12.70;99.90;;;;;;4999276;28;20065;-86
2023/11/14 03:00:29;;;;;;;43.88;7.75;;;12.70;99.90;;;;;;4999300;28;20034;-86
2023/11/14 03:02:55;;;;;;;53.42;7.32;;;12.60;99.90;;;;;;5013758;28;20033;-86
2023/11/14 03:05:21;;;;;;;52.72;9.07;;;12.60;99.90;;;;;;4996314;28;20018;-86
2023/11/14 03:07:47;;;;;;;36.72;6.60;;;12.60;99.90;;;;;;4993105;28;20054;-86
2023/11/14 03:10:12;;;;;;;42.47;7.20;;;12.60;99.90;;;;;;4994546;28;20038;-86
2023/11/14 03:12:38;;;;;;;60.80;8.90;;;12.60;99.90;;;;;;4993880;28;20022;-85
2023/11/14 03:15:04;;;;;;;49.20;8.18;;;12.60;99.90;;;;;;4987560;28;20220;-86
2023/11/14 03:17:30;;;;;;;41.55;7.53;;;12.60;99.90;;;;;;5004654;28;20109;-86
2023/11/14 03:19:55;;;;;;;38.67;6.40;;;12.70;99.90;;;;;;5013732;28;20112;-86
2023/11/14 03:22:21;;;;;;;38.75;6.80;;;12.60;99.90;;;;;;5007834;28;20057;-87
2023/11/14 03:25:05;;;;;;;59.35;8.35;;;12.60;99.90;;;;;;4974407;28;20495;-86
2023/11/14 03:27:31;;;;;;;45.60;8.45;;;12.60;99.90;;;;;;4993856;28;20030;-86
2023/11/14 03:29:57;;;;;;;44.05;8.23;;;12.60;99.90;;;;;;4996953;28;20091;-87
2023/11/14 03:32:42;;;;;;;54.13;8.13;;;12.60;99.90;;;;;;5006017;28;20029;-86
2023/11/14 03:35:09;;;;;;;51.83;7.15;;;12.40;99.90;;;;;;5007364;28;20577;-87
2023/11/14 03:37:49;;;;;;;38.30;7.20;;;13.80;99.90;;;;;;5012971;28;20025;-87
2023/11/14 03:40:33;;;;;;;36.97;6.18;;;13.80;99.90;;;;;;5013645;28;20581;-87
2023/11/14 03:42:59;;;;;;;47.17;7.85;;;12.80;99.90;;;;;;5012124;28;20092;-87
2023/11/14 03:45:24;;;;;;;35.45;6.15;;;12.60;99.90;;;;;;5003474;23;20054;-86
2023/11/14 03:47:50;;;;;;;47.15;7.45;;;12.70;99.90;;;;;;4986286;28;20057;-87
2023/11/14 03:50:15;;;;;;;70.53;10.40;;;12.50;99.90;;;;;;4973311;28;20410;-87
2023/11/14 03:52:41;;;;;;;49.50;7.88;;;12.60;99.90;;;;;;4973508;28;20447;-86
2023/11/14 03:55:07;;;;;;;52.05;8.43;;;12.60;99.90;;;;;;4974041;28;20042;-86
2023/11/14 03:57:32;;;;;;;48.45;7.68;;;12.60;99.90;;;;;;4972761;28;20310;-84
2023/11/14 03:59:58;;;;;;;46.13;7.07;;;12.60;99.90;;;;;;4974977;28;20037;-87
2023/11/14 04:02:23;;;;;;;44.67;7.53;;;12.60;99.90;;;;;;4989067;28;20022;-83
2023/11/14 04:04:49;;;;;;;38.67;6.90;;;12.50;99.90;;;;;;4973443;28;20412;-86
2023/11/14 04:07:14;;;;;;;41.92;7.07;;;13.50;99.90;;;;;;4973921;28;20368;-86
2023/11/14 04:09:40;;;;;;;47.35;7.63;;;12.50;99.90;;;;;;4987790;28;20045;-86
2023/11/14 04:12:06;;;;;;;52.38;7.72;;;12.80;99.90;;;;;;4991876;28;20080;-85
2023/11/14 04:14:32;;;;;;;47.53;6.90;;;12.50;99.90;;;;;;4992484;28;20035;-86
2023/11/14 04:16:57;;;;;;;41.25;8.20;;;12.50;99.90;;;;;;4993126;28;20029;-86
2023/11/14 04:19:24;;;;;;;56.95;7.18;;;12.70;99.90;;;;;;4993511;28;20030;-85
2023/11/14 04:21:50;;;;;;;50.65;7.78;;;12.50;99.90;;;;;;4996943;28;20019;-85
2023/11/14 04:24:15;;;;;;;53.42;8.43;;;12.50;99.90;;;;;;4996540;28;20105;-87
2023/11/14 04:26:44;;;;;;;48.55;7.45;;;12.50;99.90;;;;;;4990615;28;20460;-86
2023/11/14 04:29:09;;;;;;;47.67;7.63;;;12.50;99.90;;;;;;4986112;28;20039;-87
2023/11/14 04:31:35;;;;;;;57.92;7.35;;;12.40;99.90;;;;;;4972250;28;20030;-87
2023/11/14 04:34:01;;;;;;;46.00;9.80;;;12.50;99.90;;;;;;4980227;28;20028;-84
2023/11/14 04:36:26;;;;;;;53.50;8.93;;;12.50;99.90;;;;;;4992203;28;20072;-87
2023/11/14 04:38:52;;;;;;;52.75;9.65;;;12.50;99.90;;;;;;4992182;28;20019;-86
2023/11/14 04:41:18;;;;;;;47.85;6.88;;;12.40;99.90;;;;;;4991910;28;20032;-86
2023/11/14 04:43:44;;;;;;;43.30;7.93;;;12.50;99.90;;;;;;4972259;28;20023;-86
2023/11/14 04:46:09;;;;;;;47.08;7.57;;;12.40;99.90;;;;;;4972603;28;20505;-86
2023/11/14 04:48:35;;;;;;;38.92;7.40;;;12.40;99.90;;;;;;4964677;28;20077;-86
2023/11/14 04:51:01;;;;;;;62.53;8.20;;;12.60;99.90;;;;;;4973135;28;20034;-86
2023/11/14 04:53:26;;;;;;;45.78;7.50;;;12.40;99.90;;;;;;4972328;28;20038;-86
2023/11/14 04:55:52;;;;;;;43.90;7.68;;;12.30;99.90;;;;;;4980514;28;20027;-86
2023/11/14 04:58:17;;;;;;;52.67;6.70;;;12.50;99.90;;;;;;4991619;28;20029;-86
2023/11/14 05:00:43;;;;;;;44.00;6.85;;;12.30;99.90;;;;;;4984213;28;20022;-86
2023/11/14 05:03:09;;;;;;;48.28;9.32;;;13.10;99.90;;;;;;4992247;28;20118;-86
2023/11/14 05:05:35;;;;;;;49.50;7.95;;;12.30;99.90;;;;;;4992672;28;20112;-86
2023/11/14 05:08:01;;;;;;;45.85;8.25;;;12.30;99.90;;;;;;4992211;28;20363;-86
2023/11/14 05:10:27;;;;;;;46.58;7.65;;;12.50;99.90;;;;;;4989591;28;20045;-86
2023/11/14 05:12:53;;;;;;;52.70;8.68;;;12.30;99.90;;;;;;4972989;28;20023;-87
2023/11/14 05:15:18;;;;;;;49.17;7.95;;;12.30;99.90;;;;;;4972693;28;20487;-86
2023/11/14 05:17:44;;;;;;;48.97;7.85;;;12.30;99.90;;;;;;4982075;28;20038;-85
2023/11/14 05:20:11;;;;;;;49.45;9.02;;;12.80;99.90;;;;;;4996325;28;20018;-86
2023/11/14 05:22:38;;;;;;;55.20;9.32;;;12.30;99.90;;;;;;4995343;28;20375;-87
2023/11/14 05:25:05;;;;;;;57.10;8.30;;;12.30;99.90;;;;;;4996278;28;20169;-86
2023/11/14 05:27:30;;;;;;;45.03;7.28;;;12.30;99.90;;;;;;4995850;28;20108;-87
2023/11/14 05:29:56;;;;;;;51.58;8.27;;;12.60;99.90;;;;;;4992264;28;20041;-84
2023/11/14 05:32:22;;;;;;;46.53;8.15;;;12.50;99.90;;;;;;4983645;28;20053;-85
2023/11/14 05:34:48;;;;;;;45.65;7.97;;;12.40;99.90;;;;;;4982717;28;20031;-86
2023/11/14 05:37:13;;;;;;;57.25;8.35;;;12.40;99.90;;;;;;4993737;28;20073;-85
2023/11/14 05:39:39;;;;;;;45.03;7.43;;;12.70;99.90;;;;;;4976603;28;20360;-85
2023/11/14 05:42:05;;;;;;;44.70;7.65;;;12.40;99.90;;;;;;4975942;28;20023;-85
2023/11/14 05:44:32;;;;;;;48.67;8.65;;;12.40;99.90;;;;;;4976232;28;20073;-85
2023/11/14 05:46:57;;;;;;;44.63;8.07;;;12.40;99.90;;;;;;4976427;28;20456;-85
2023/11/14 05:49:23;;;;;;;51.42;8.15;;;12.40;99.90;;;;;;4974970;28;20126;-85
2023/11/14 05:51:49;;;;;;;50.03;8.38;;;12.40;99.90;;;;;;4976080;28;20062;-85
2023/11/14 05:54:14;;;;;;;36.75;7.53;;;12.50;99.90;;;;;;4981907;28;20030;-85
2023/11/14 05:56:40;;;;;;;61.08;9.65;;;12.30;99.90;;;;;;4976608;28;20045;-85
2023/11/14 05:59:08;;;;;;;49.50;7.78;;;12.30;99.90;;;;;;4991117;28;20026;-85
2023/11/14 06:01:34;;;;;;;37.03;7.80;;;13.40;99.90;;;;;;4995275;28;20102;-85
2023/11/14 06:04:00;;;;;;;58.28;8.02;;;12.70;99.90;;;;;;4994615;28;20109;-85
2023/11/14 06:06:26;;;;;;;49.22;8.30;;;12.40;99.90;;;;;;4995225;28;20459;-85
2023/11/14 06:08:51;;;;;;;52.88;8.27;;;13.10;99.90;;;;;;4994981;28;20387;-85
2023/11/14 06:11:17;;;;;;;47.95;7.97;;;12.70;99.90;;;;;;4994756;28;20023;-85
2023/11/14 06:13:46;;;;;;;62.83;9.98;;;12.80;99.90;;;;;;4994906;28;20105;-85
2023/11/14 06:16:12;;;;;;;45.72;9.23;;;12.40;99.90;;;;;;4982322;28;20403;-84
2023/11/14 06:18:37;;;;;;;53.53;8.10;;;12.40;99.90;;;;;;4975097;28;20030;-85
2023/11/14 06:21:03;;;;;;;60.35;7.97;;;12.90;99.90;;;;;;4994626;28;20077;-84
2023/11/14 06:23:29;;;;;;;49.85;10.18;;;12.30;99.90;;;;;;4994660;28;20419;-85
2023/11/14 06:25:56;;;;;;;46.80;8.70;;;12.40;99.90;;;;;;4992231;28;20073;-85
2023/11/14 06:28:21;;;;;;;53.35;7.70;;;12.30;99.90;;;;;;4975136;28;20030;-85
2023/11/14 06:30:47;;;;;;;56.05;9.00;;;12.30;99.90;;;;;;4974868;28;20035;-85
2023/11/14 06:33:13;;;;;;;47.55;8.27;;;12.40;99.90;;;;;;4988848;28;20030;-85
2023/11/14 06:35:39;;;;;;;53.42;7.80;;;11.90;99.90;;;;;;4993921;28;20375;-85
2023/11/14 06:38:05;;;;;;;46.47;7.93;;;12.40;99.90;;;;;;4971537;28;20031;-84
2023/11/14 06:40:31;;;;;;;66.50;9.50;;;12.50;99.90;;;;;;4974659;28;20031;-86
2023/11/14 06:42:56;;;;;;;48.63;6.82;;;12.40;99.90;;;;;;4974580;28;20030;-83
2023/11/14 06:45:22;;;;;;;56.42;8.68;;;12.40;99.90;;;;;;4975832;28;20078;-83
2023/11/14 06:47:48;;;;;;;48.95;7.82;;;12.40;99.90;;;;;;4964607;28;20030;-84
2023/11/14 06:50:16;;;;;;;60.88;9.70;;;12.40;99.90;;;;;;4973465;28;20497;-83
2023/11/14 06:52:41;;;;;;;56.05;9.55;;;12.60;99.90;;;;;;4973242;28;20030;-83
2023/11/14 06:55:07;;;;;;;52.58;8.68;;;12.40;99.90;;;;;;4973344;28;20037;-83
2023/11/14 06:57:33;;;;;;;53.95;9.13;;;12.30;99.90;;;;;;4974944;28;20514;-84
2023/11/14 07:00:03;;;;;;;42.10;7.68;;;12.30;99.90;;;;;;4976019;28;20030;-83
2023/11/14 07:02:29;;;;;;;47.40;8.77;;;12.30;99.90;;;;;;4983955;28;20081;-83
2023/11/14 07:04:54;;;;;;;58.70;9.07;;;12.10;99.90;;;;;;4984311;28;20416;-83
2023/11/14 07:07:21;;;;;;;61.15;9.98;;;12.20;99.90;;;;;;4982123;28;20019;-83
2023/11/14 07:09:47;;;;;;;54.00;9.65;;;12.20;99.90;;;;;;4979293;28;20042;-83
2023/11/14 07:12:13;;;;;;;53.83;9.63;;;13.00;99.90;;;;;;4971521;28;20030;-83
2023/11/14 07:14:39;;;;;;;48.10;8.60;;;12.20;99.90;;;;;;4973155;28;20379;-83
2023/11/14 07:17:04;;;;;;;60.42;10.00;;;12.20;99.90;;;;;;4973689;28;20478;-83
2023/11/14 07:19:30;;;;;;;45.28;8.18;;;12.30;99.90;;;;;;4976214;28;20058;-83
2023/11/14 07:21:57;;;;;;;48.05;8.27;;;12.70;99.90;;;;;;4986924;28;20031;-83
2023/11/14 07:24:22;;;;;;;58.85;8.55;;;12.30;99.90;;;;;;4973569;28;20027;-83
2023/11/14 07:26:49;;;;;;;50.08;7.85;;;12.10;99.90;;;;;;4974527;28;20049;-83
2023/11/14 07:29:15;;;;;;;56.85;9.63;;;12.30;99.90;;;;;;4973272;28;20045;-83
2023/11/14 07:31:42;;;;;;;64.63;8.45;;;12.40;99.90;;;;;;4986199;28;20034;-82
2023/11/14 07:34:08;;;;;;;53.22;7.80;;;12.30;99.90;;;;;;4995342;28;20505;-84
2023/11/14 07:36:33;;;;;;;45.47;8.55;;;12.30;99.90;;;;;;4985101;28;20022;-84
2023/11/14 07:38:59;;;;;;;67.97;9.90;;;12.30;99.90;;;;;;4976665;28;20031;-84
2023/11/14 07:41:25;;;;;;;50.65;7.95;;;12.80;99.90;;;;;;4980487;28;20078;-82
2023/11/14 07:43:51;;;;;;;56.80;8.93;;;12.40;99.90;;;;;;4981976;28;20038;-84
2023/11/14 07:46:17;;;;;;;50.63;9.23;;;12.40;99.90;;;;;;4983260;28;20023;-84
2023/11/14 07:48:43;;;;;;;44.03;8.57;;;12.90;99.90;;;;;;4981586;28;20035;-85
2023/11/14 07:51:09;;;;;;;55.65;9.40;;;12.70;99.90;;;;;;4993011;28;20041;-84
2023/11/14 07:53:35;;;;;;;54.08;10.00;;;12.40;99.90;;;;;;4992579;28;20062;-84
2023/11/14 07:56:01;;;;;;;50.47;8.30;;;12.40;99.90;;;;;;4992432;28;20478;-83
2023/11/14 07:58:29;;;;;;;47.50;8.30;;;12.60;99.90;;;;;;4993005;28;20057;-84
2023/11/14 08:00:56;;;;;;;57.67;8.43;;;13.60;99.90;;;;;;4993836;28;20109;-85
2023/11/14 08:03:23;;;;;;;55.10;7.78;;;12.40;99.90;;;;;;4973132;28;20376;-84
2023/11/14 08:05:49;;;;;;;44.72;7.43;;;13.00;99.90;;;;;;4970051;28;20035;-83
2023/11/14 08:08:14;;;;;;;56.17;8.40;;;12.30;99.90;;;;;;4985679;28;20509;-84
2023/11/14 08:10:40;;;;;;;56.50;7.63;;;12.40;99.90;;;;;;4976677;28;20030;-83
2023/11/14 08:13:07;;;;;;;62.88;9.52;;;12.30;99.90;;;;;;4986909;28;20098;-84
2023/11/14 08:15:33;;;;;;;54.13;7.78;;;12.40;99.90;;;;;;4952841;29;20070;-84
2023/11/14 08:17:59;;;;;;;50.17;9.23;;;12.30;99.90;;;;;;4964227;28;20030;-84
2023/11/14 08:20:28;;;;;;;42.97;7.50;;;12.30;99.90;;;;;;4980751;28;20031;-83
2023/11/14 08:22:54;;;;;;;49.33;8.27;;;12.30;99.90;;;;;;4976441;28;20026;-85
2023/11/14 08:25:20;;;;;;;54.72;8.90;;;12.30;99.90;;;;;;4970570;28;20479;-85
2023/11/14 08:27:49;;;;;;;55.72;7.22;;;12.40;99.90;;;;;;4972287;28;20027;-82
2023/11/14 08:30:15;;;;;;;51.40;8.93;;;12.40;99.90;;;;;;4971632;28;20073;-87
2023/11/14 08:32:47;;;;;;;44.13;7.97;;;12.40;99.90;;;;;;4972307;28;20027;-88
2023/11/14 08:35:13;;;;;;;40.20;7.82;;;12.40;99.90;;;;;;4975617;28;20030;-88
2023/11/14 08:37:39;;;;;;;53.35;8.85;;;12.60;99.90;;;;;;4974353;28;20606;-88
2023/11/14 08:40:05;;;;;;;65.93;9.18;;;12.40;99.90;;;;;;4972211;28;20026;-85
2023/11/14 08:42:31;;;;;;;54.42;9.07;;;12.40;99.90;;;;;;4972509;28;20023;-85
2023/11/14 08:44:57;;;;;;;51.38;9.15;;;12.40;99.90;;;;;;4988726;28;20532;-84
2023/11/14 08:47:23;;;;;;;58.65;8.70;;;12.50;99.90;;;;;;4990256;28;20022;-82
2023/11/14 08:49:49;;;;;;;41.50;7.50;;;12.40;99.90;;;;;;4992592;28;20042;-82
2023/11/14 08:52:15;;;;;;;48.58;10.00;;;12.40;99.90;;;;;;4995793;28;20022;-82
2023/11/14 08:54:41;;;;;;;48.33;8.23;;;12.50;99.90;;;;;;4979097;28;20042;-84
2023/11/14 08:57:06;;;;;;;49.67;6.68;;;12.40;99.90;;;;;;4977410;28;20097;-85
2023/11/14 08:59:32;;;;;;;39.95;7.70;;;12.50;99.90;;;;;;4974681;28;20038;-85
2023/11/14 09:01:58;;;;;;;52.80;7.88;;;12.50;99.90;;;;;;4994276;28;20430;-83
2023/11/14 09:04:23;;;;;;;50.88;8.05;;;12.50;99.90;;;;;;4973981;28;20022;-82
2023/11/14 09:06:49;;;;;;;44.00;6.60;;;12.50;99.90;;;;;;4976154;28;20031;-85
2023/11/14 09:09:14;;;;;;;52.08;9.80;;;12.50;99.90;;;;;;4977041;28;20534;-85
2023/11/14 09:11:40;;;;;;;59.70;9.23;;;12.50;99.90;;;;;;4984950;28;20245;-86
2023/11/14 09:14:05;;;;;;;49.33;8.57;;;12.50;99.90;;;;;;4976280;28;20018;-82
2023/11/14 09:16:31;;;;;;;43.35;8.00;;;12.50;99.90;;;;;;4976327;28;20023;-82
2023/11/14 09:18:59;;;;;;;52.03;7.68;;;13.10;99.90;;;;;;4979213;28;20031;-80
2023/11/14 09:21:25;;;;;;;61.42;8.20;;;12.60;99.90;;;;;;4995081;28;20031;-82
2023/11/14 09:23:50;;;;;;;46.50;8.18;;;12.60;99.90;;;;;;4993215;28;20502;-81
2023/11/14 09:26:16;;;;;;;50.53;6.82;;;12.60;99.90;;;;;;4969687;28;20030;-83
2023/11/14 09:28:41;;;;;;;51.30;8.45;;;12.60;99.90;;;;;;4984815;28;20030;-84
2023/11/14 09:31:08;;;;;;;51.88;8.98;;;12.70;99.90;;;;;;4996234;28;20418;-84
2023/11/14 09:33:35;;;;;;;49.60;8.70;;;12.90;99.90;;;;;;4980629;28;20027;-83
2023/11/14 09:36:01;;;;;;;50.42;8.93;;;12.80;99.90;;;;;;4976370;28;20035;-82
2023/11/14 09:38:27;;;;;;;54.97;8.07;;;12.70;99.90;;;;;;4986904;28;20105;-82
2023/11/14 09:40:54;;;;;;;49.38;8.20;;;12.70;99.90;;;;;;4976718;28;20149;-84
2023/11/14 09:43:23;;;;;;;46.03;8.57;;;12.70;99.90;;;;;;4983958;28;20027;-83
2023/11/14 09:45:50;;;;;;;46.03;7.43;;;12.70;99.90;;;;;;5048290;23;20054;-82
2023/11/14 09:48:17;;;;;;;58.67;9.30;;;13.50;99.90;;;;;;4995368;28;20045;-83
2023/11/14 09:50:48;;;;;;;54.33;8.70;;;12.80;99.90;;;;;;4997429;28;20217;-82
2023/11/14 09:53:14;;;;;;;49.63;8.30;;;13.90;99.90;;;;;;4999613;28;20025;-82
2023/11/14 09:55:40;;;;;;;54.40;8.70;;;12.80;99.90;;;;;;4994744;28;20038;-83
2023/11/14 09:58:06;;;;;;;41.63;7.68;;;13.50;99.90;;;;;;4995511;28;20359;-82
2023/11/14 10:00:33;;;;;;;42.60;7.90;;;12.90;99.90;;;;;;4995260;28;20023;-82
2023/11/14 10:02:59;;;;;;;33.63;7.30;;;13.00;99.90;;;;;;4993788;28;20454;-83
2023/11/14 10:05:25;;;;;;;50.50;7.95;;;13.00;99.90;;;;;;4995150;28;20026;-84
2023/11/14 10:07:51;;;;;;;50.72;8.90;;;13.00;99.90;;;;;;4994689;28;20072;-83
2023/11/14 10:10:17;;;;;;;45.88;8.35;;;12.90;99.90;;;;;;4993759;28;20494;-83
2023/11/14 10:12:43;;;;;;;48.83;8.75;;;13.00;99.90;;;;;;4994917;28;20364;-82
2023/11/14 10:15:10;;;;;;;47.35;9.38;;;13.10;99.90;;;;;;4993284;28;20095;-83
2023/11/14 10:17:39;;;;;;;44.65;9.65;;;13.00;99.90;;;;;;4988585;28;20030;-83
2023/11/14 10:20:07;;;;;;;53.22;8.73;;;13.40;99.90;;;;;;4987070;28;20098;-83
2023/11/14 10:22:34;;;;;;;53.03;8.25;;;13.00;99.90;;;;;;4993034;28;20038;-83
2023/11/14 10:25:00;;;;;;;62.50;10.40;;;13.00;99.90;;;;;;4992433;28;20374;-83
2023/11/14 10:27:31;;;;;;;49.03;8.60;;;13.60;99.90;;;;;;4993079;28;20106;-82
2023/11/14 10:29:57;;;;;;;;;;;13.00;99.90;;;;;;4992712;28;20041;-83
2023/11/14 10:32:23;;;;;;;53.40;8.18;;;13.00;99.90;;;;;;4989202;28;19906;-85
2023/11/14 10:34:51;;;;;;;50.63;9.65;;;13.00;99.90;;;;;;4986337;28;20014;-84
2023/11/14 10:37:33;;;;;;;61.25;9.60;;;13.30;99.90;;;;;;4983984;28;20411;-83
2023/11/14 10:40:01;;;;;;;48.95;8.52;;;12.90;99.90;;;;;;5001134;28;20378;-83
2023/11/14 10:42:28;;;;;;;62.53;9.05;;;13.00;99.90;;;;;;5002345;28;20035;-84
2023/11/14 10:45:02;;;;;;;48.67;8.35;;;13.00;99.90;;;;;;4996084;28;20519;-85
2023/11/14 10:47:41;;;;;;;57.38;9.68;;;13.00;99.90;;;;;;5000707;28;20490;-83
2023/11/14 10:50:27;;;;;;;58.10;9.13;;;13.00;99.90;;;;;;4999666;28;20042;-84
2023/11/14 10:52:54;;;;;;;51.20;9.20;;;13.00;99.90;;;;;;5003077;28;20153;-84
2023/11/14 10:55:24;;;;;;;53.38;9.02;;;13.00;99.90;;;;;;4995868;28;20038;-83
2023/11/14 10:57:51;;;;;;;48.38;8.13;;;13.00;99.90;;;;;;4994140;28;20029;-83
2023/11/14 11:00:24;;;;;;;45.50;7.82;;;13.00;99.90;;;;;;4975212;28;20058;-83
2023/11/14 11:02:51;;;;;;;59.63;10.13;;;13.00;99.90;;;;;;4975102;28;20395;-84
2023/11/14 11:05:20;;;;;;;51.22;7.25;;;13.00;99.90;;;;;;4984251;28;20034;-84
2023/11/14 11:07:50;;;;;;;59.88;9.93;;;13.00;99.90;;;;;;4993677;28;20030;-83
2023/11/14 11:10:16;;;;;;;40.50;6.97;;;13.00;99.90;;;;;;4993483;28;20060;-84
2023/11/14 11:12:44;;;;;;;61.35;8.40;;;13.00;99.90;;;;;;4992265;28;20029;-83
2023/11/14 11:15:10;;;;;;;54.70;9.40;;;13.00;99.90;;;;;;4973696;28;20026;-84
2023/11/14 11:17:40;;;;;;;47.67;8.93;;;13.00;99.90;;;;;;4982700;28;20026;-80
2023/11/14 11:20:21;;;;;;;56.13;9.30;;;13.00;99.90;;;;;;4991527;28;20027;-88
2023/11/14 11:23:12;;;;;;;48.67;8.32;;;13.10;99.90;;;;;;4987223;28;20029;-83
2023/11/14 11:25:41;;;;;;;51.60;8.57;;;13.10;99.90;;;;;;4999553;28;20103;-84
2023/11/14 11:28:21;;;;;;;45.80;8.43;;;13.10;99.90;;;;;;5001877;28;20029;-84
2023/11/14 11:31:10;;;;;;;46.25;9.48;;;13.10;99.90;;;;;;5002305;28;20104;-83
2023/11/14 11:33:37;;;;;;;53.80;9.40;;;13.10;99.90;;;;;;4992072;28;20039;-83
2023/11/14 11:36:24;;;;;;;38.00;8.02;;;13.20;99.90;;;;;;4986099;28;20431;-84
2023/11/14 11:39:03;;;;;;;51.70;10.52;;;13.20;99.90;;;;;;4980557;28;20058;-84
2023/11/14 11:41:53;;;;;;;38.72;7.63;;;13.20;99.90;;;;;;4986269;28;20114;-84
2023/11/14 11:44:19;;;;;;;50.53;8.20;;;13.20;99.90;;;;;;4973609;28;20144;-83
2023/11/14 11:46:48;;;;;;;49.60;9.02;;;13.20;99.90;;;;;;4982585;28;20064;-83
2023/11/14 11:49:13;;;;;;;45.33;8.65;;;13.20;99.90;;;;;;4979481;23;20059;-83
2023/11/14 11:51:48;;;;;;;46.95;7.63;;;13.90;99.90;;;;;;4973625;28;20034;-83
2023/11/14 11:54:29;;;;;;;32.97;6.70;;;13.20;99.90;;;;;;4973590;28;20470;-84
2023/11/14 11:57:04;;;;;;;40.92;7.57;;;13.20;99.90;;;;;;4973034;28;20475;-84
2023/11/14 11:59:53;;;;;;;41.20;8.32;;;13.20;99.90;;;;;;4958600;28;20027;-85
2023/11/14 12:02:23;;;;;;;33.92;6.47;;;13.30;99.90;;;;;;4941439;28;20226;-87
2023/11/14 12:04:55;;;;;;;45.13;8.30;;;13.50;99.90;;;;;;4959514;28;20476;-83
2023/11/14 12:07:21;;;;;;;31.23;6.35;;;13.60;99.90;;;;;;4963619;28;20496;-85
2023/11/14 12:09:46;;;;;;;40.00;7.55;;;13.30;99.90;;;;;;4953803;28;20055;-84
2023/11/14 12:12:14;;;;;;;39.60;6.93;;;14.00;99.90;;;;;;4954285;28;20028;-83
2023/11/14 12:14:41;;;;;;;48.40;7.72;;;13.20;99.90;;;;;;4954002;28;20177;-83
2023/11/14 12:17:07;;;;;;;35.85;6.05;;;13.10;99.90;;;;;;4953945;28;20067;-83
2023/11/14 12:19:33;;;;;;;35.45;7.13;;;13.20;99.90;;;;;;4954162;28;20051;-86
2023/11/14 12:22:00;;;;;;;34.75;5.93;;;13.10;99.90;;;;;;4959075;28;20077;-85
2023/11/14 12:24:26;;;;;;;37.47;6.47;;;13.00;99.90;;;;;;4954033;28;20037;-86
2023/11/14 12:26:52;;;;;;;39.95;6.65;;;13.00;99.90;;;;;;4972580;28;20034;-85
2023/11/14 12:29:19;;;;;;;30.95;5.55;;;13.00;99.90;;;;;;4977783;28;20030;-85
2023/11/14 12:31:46;;;;;;;34.50;6.13;;;12.90;99.90;;;;;;4974192;28;20031;-85
2023/11/14 12:34:11;;;;;;;46.55;7.57;;;13.20;99.90;;;;;;4976592;28;20054;-85
2023/11/14 12:36:37;;;;;;;37.85;7.30;;;12.90;99.90;;;;;;4974721;28;20022;-84
2023/11/14 12:39:16;;;;;;;30.23;6.20;;;12.90;99.90;;;;;;4975181;28;20467;-85
2023/11/14 12:41:43;;;;;;;45.88;7.70;;;13.30;99.90;;;;;;4974789;28;20434;-84